Orbital elements of COSMOS 2251 DEB
| Launched | 15 June 1993 |
| Flight ended | – |
| Launch site | Plesetsk Missile and Space Complex, Russia |
| Owner | Commonwealth of Independent States (former USSR) |
| NORAD ID | 36005 |
| Date fetched |
Epoch osculation |
Inc. [°] |
Ecc. | RA asc node [hr] |
Arg Peri. [°] |
Mean anom [°] |
Mean motion [rev/day] |
Abs. mag |
| Date fetched |
Epoch osculation |
Inc. [°] |
Ecc. | RA asc node [hr] |
Arg Peri. [°] |
Mean anom [°] |
Mean motion [rev/day] |
Abs. mag |
| 2026 May 08 17:57 | 2026 May 05 10:01:53 | 74.0265 | 0.00622 | 12.3423 | 286.0961 | 73.3355 | 14.47547 | – |
| 2026 May 07 17:58 | 2026 May 05 10:01:53 | 74.0265 | 0.00622 | 12.3423 | 286.0961 | 73.3355 | 14.47547 | – |
| 2026 May 06 17:57 | 2026 May 05 10:01:53 | 74.0265 | 0.00622 | 12.3423 | 286.0961 | 73.3355 | 14.47547 | – |
| 2026 May 05 17:57 | 2026 May 05 10:01:53 | 74.0265 | 0.00622 | 12.3423 | 286.0961 | 73.3355 | 14.47547 | – |
| 2026 May 04 17:57 | 2026 Apr 30 05:37:57 | 74.0269 | 0.00621 | 12.9890 | 296.9005 | 73.3355 | 14.47547 | – |
| 2026 May 03 17:57 | 2026 Apr 30 05:37:57 | 74.0269 | 0.00621 | 12.9890 | 296.9005 | 73.3355 | 14.47547 | – |
| 2026 May 02 17:57 | 2026 Apr 30 05:37:57 | 74.0269 | 0.00621 | 12.9890 | 296.9005 | 73.3355 | 14.47547 | – |
| 2026 May 01 17:56 | 2026 Apr 30 05:37:57 | 74.0269 | 0.00621 | 12.9890 | 296.9005 | 73.3355 | 14.47547 | – |
| 2026 Apr 30 17:56 | 2026 Apr 30 05:37:57 | 74.0269 | 0.00621 | 12.9890 | 296.9005 | 73.3355 | 14.47547 | – |
| 2026 Apr 29 17:57 | 2026 Apr 24 06:59:17 | 74.0272 | 0.00619 | 13.7305 | 309.3120 | 73.3355 | 14.47547 | – |
| 2026 Apr 28 17:56 | 2026 Apr 24 06:59:17 | 74.0272 | 0.00619 | 13.7305 | 309.3120 | 73.3355 | 14.47547 | – |
| 2026 Apr 27 17:58 | 2026 Apr 24 06:59:17 | 74.0272 | 0.00619 | 13.7305 | 309.3120 | 73.3355 | 14.47547 | – |
| 2026 Apr 26 17:58 | 2026 Apr 24 06:59:17 | 74.0272 | 0.00619 | 13.7305 | 309.3120 | 73.3355 | 14.47547 | – |
| 2026 Apr 25 17:58 | 2026 Apr 24 06:59:17 | 74.0272 | 0.00619 | 13.7305 | 309.3120 | 73.3355 | 14.47547 | – |
| 2026 Apr 24 17:59 | 2026 Apr 24 06:59:17 | 74.0272 | 0.00619 | 13.7305 | 309.3120 | 73.3355 | 14.47547 | – |
| 2026 Apr 23 17:57 | 2026 Apr 18 13:19:10 | 74.0270 | 0.00617 | 14.4461 | 321.3386 | 73.3355 | 14.47547 | – |
| 2026 Apr 22 17:57 | 2026 Apr 18 13:19:10 | 74.0270 | 0.00617 | 14.4461 | 321.3386 | 73.3355 | 14.47547 | – |
| 2026 Apr 21 17:57 | 2026 Apr 18 13:19:10 | 74.0270 | 0.00617 | 14.4461 | 321.3386 | 73.3355 | 14.47547 | – |
| 2026 Apr 20 17:57 | 2026 Apr 18 13:19:10 | 74.0270 | 0.00617 | 14.4461 | 321.3386 | 73.3355 | 14.47547 | – |
| 2026 Apr 19 17:58 | 2026 Apr 18 13:19:10 | 74.0270 | 0.00617 | 14.4461 | 321.3386 | 73.3355 | 14.47547 | – |
| 2026 Apr 18 17:56 | 2026 Apr 12 14:40:28 | 74.0266 | 0.00615 | 15.1877 | 333.8015 | 73.3355 | 14.47547 | – |
| 2026 Apr 16 17:57 | 2026 Apr 12 14:40:28 | 74.0266 | 0.00615 | 15.1877 | 333.8015 | 73.3355 | 14.47547 | – |
| 2026 Apr 14 17:57 | 2026 Apr 12 14:40:28 | 74.0266 | 0.00615 | 15.1877 | 333.8015 | 73.3355 | 14.47547 | – |
| 2026 Apr 13 17:57 | 2026 Apr 12 14:40:28 | 74.0266 | 0.00615 | 15.1877 | 333.8015 | 73.3355 | 14.47547 | – |
| 2026 Apr 12 17:57 | 2026 Apr 08 02:51:41 | 74.0259 | 0.00613 | 15.7481 | 343.2794 | 73.3355 | 14.47547 | – |
| 2026 Apr 11 17:57 | 2026 Apr 08 02:51:41 | 74.0259 | 0.00613 | 15.7481 | 343.2794 | 73.3355 | 14.47547 | – |